createdAt,value
2019-05-06T00:00:28.007Z,5.20
2019-05-06T00:03:14.001Z,5.20
2019-05-06T00:06:00.548Z,5.20
2019-05-06T00:08:46.730Z,5.20
2019-05-06T00:11:34.657Z,5.10
2019-05-06T00:14:21.016Z,5.10
2019-05-06T00:17:07.001Z,5.10
2019-05-06T00:19:54.001Z,5.10
2019-05-06T00:22:41.145Z,5.00
2019-05-06T00:25:40.826Z,5.00
2019-05-06T00:28:35.623Z,5.00
2019-05-06T00:31:27.368Z,5.00
2019-05-06T00:34:13.933Z,5.00
2019-05-06T00:37:00.299Z,5.00
2019-05-06T00:40:14.029Z,5.00
2019-05-06T00:43:04.683Z,4.90
2019-05-06T00:45:50.559Z,5.00
2019-05-06T00:48:36.846Z,4.90
2019-05-06T00:51:24.171Z,4.90
2019-05-06T00:54:16.232Z,4.90
2019-05-06T00:57:03.618Z,4.90
2019-05-06T00:59:50.056Z,4.80
2019-05-06T01:02:35.875Z,4.80
2019-05-06T01:05:24.280Z,4.80
2019-05-06T01:08:09.691Z,4.70
2019-05-06T01:10:56.143Z,4.70
2019-05-06T01:14:04.016Z,4.70
2019-05-06T01:16:50.667Z,4.70
2019-05-06T01:19:36.914Z,4.70
2019-05-06T01:22:24.639Z,4.60
2019-05-06T01:25:11.376Z,4.60
2019-05-06T01:27:57.240Z,4.50
2019-05-06T01:30:44.329Z,4.50
2019-05-06T01:33:30.755Z,4.40
2019-05-06T01:36:16.612Z,4.30
2019-05-06T01:39:25.047Z,4.20
2019-05-06T01:42:30.719Z,4.10
2019-05-06T01:45:16.959Z,3.90
2019-05-06T01:48:04.017Z,3.70
2019-05-06T01:50:50.051Z,3.60
2019-05-06T01:53:35.861Z,3.50
2019-05-06T01:56:23.981Z,3.30
2019-05-06T01:59:09.939Z,3.30
2019-05-06T02:02:00.774Z,3.20
2019-05-06T02:04:44.379Z,3.10
2019-05-06T02:07:30.539Z,3.00
2019-05-06T02:10:16.981Z,2.90
2019-05-06T02:13:03.946Z,2.90
2019-05-06T02:15:50.374Z,2.80
2019-05-06T02:18:36.323Z,2.80
2019-05-06T02:21:43.728Z,2.70
2019-05-06T02:24:35.541Z,2.70
